sensor_id;sensor_type;location;lat;lon;timestamp;temperature;humidity
2158;DHT22;41972;48.774;9.282;2023-04-12T00:00:45;8.10;99.90
2158;DHT22;41972;48.774;9.282;2023-04-12T00:03:10;8.20;99.90
2158;DHT22;41972;48.774;9.282;2023-04-12T00:05:36;8.30;99.90
2158;DHT22;41972;48.774;9.282;2023-04-12T00:08:02;8.70;99.90
2158;DHT22;41972;48.774;9.282;2023-04-12T00:10:29;8.30;99.90
2158;DHT22;41972;48.774;9.282;2023-04-12T00:12:55;8.30;99.90
2158;DHT22;41972;48.774;9.282;2023-04-12T00:15:20;8.10;99.90
2158;DHT22;41972;48.774;9.282;2023-04-12T00:17:46;8.80;99.90
2158;DHT22;41972;48.774;9.282;2023-04-12T00:20:12;8.20;99.90
2158;DHT22;41972;48.774;9.282;2023-04-12T00:22:40;8.20;99.90
2158;DHT22;41972;48.774;9.282;2023-04-12T00:25:07;8.10;99.90
2158;DHT22;41972;48.774;9.282;2023-04-12T00:27:33;8.00;99.90
2158;DHT22;41972;48.774;9.282;2023-04-12T00:29:58;7.90;99.90
2158;DHT22;41972;48.774;9.282;2023-04-12T00:32:24;8.00;99.90
2158;DHT22;41972;48.774;9.282;2023-04-12T00:34:50;8.40;99.90
2158;DHT22;41972;48.774;9.282;2023-04-12T00:37:16;7.90;99.90
2158;DHT22;41972;48.774;9.282;2023-04-12T00:39:41;7.80;99.90
2158;DHT22;41972;48.774;9.282;2023-04-12T00:42:07;7.90;99.90
2158;DHT22;41972;48.774;9.282;2023-04-12T00:44:32;7.90;99.90
2158;DHT22;41972;48.774;9.282;2023-04-12T00:46:59;7.80;99.90
2158;DHT22;41972;48.774;9.282;2023-04-12T00:49:26;7.90;99.90
2158;DHT22;41972;48.774;9.282;2023-04-12T00:52:00;8.00;99.90
2158;DHT22;41972;48.774;9.282;2023-04-12T00:54:29;7.90;99.90
2158;DHT22;41972;48.774;9.282;2023-04-12T00:56:55;7.90;99.90
2158;DHT22;41972;48.774;9.282;2023-04-12T00:59:22;8.10;99.90
2158;DHT22;41972;48.774;9.282;2023-04-12T01:01:48;8.40;99.90
2158;DHT22;41972;48.774;9.282;2023-04-12T01:04:13;8.10;99.90
2158;DHT22;41972;48.774;9.282;2023-04-12T01:07:04;8.20;99.90
2158;DHT22;41972;48.774;9.282;2023-04-12T01:09:41;8.20;99.90
2158;DHT22;41972;48.774;9.282;2023-04-12T01:12:28;8.00;99.90
2158;DHT22;41972;48.774;9.282;2023-04-12T01:15:04;8.00;99.90
2158;DHT22;41972;48.774;9.282;2023-04-12T01:17:37;8.00;99.90
2158;DHT22;41972;48.774;9.282;2023-04-12T01:20:10;8.20;99.90
2158;DHT22;41972;48.774;9.282;2023-04-12T01:25:36;7.70;99.90
2158;DHT22;41972;48.774;9.282;2023-04-12T01:28:04;7.70;99.90
2158;DHT22;41972;48.774;9.282;2023-04-12T01:30:31;7.60;99.90
2158;DHT22;41972;48.774;9.282;2023-04-12T01:32:59;7.60;99.90
2158;DHT22;41972;48.774;9.282;2023-04-12T01:35:30;7.60;99.90
2158;DHT22;41972;48.774;9.282;2023-04-12T01:37:59;7.50;99.90
2158;DHT22;41972;48.774;9.282;2023-04-12T01:40:27;7.40;99.90
2158;DHT22;41972;48.774;9.282;2023-04-12T01:43:05;7.40;99.90
2158;DHT22;41972;48.774;9.282;2023-04-12T01:45:32;7.50;99.90
2158;DHT22;41972;48.774;9.282;2023-04-12T01:47:57;7.30;99.90
2158;DHT22;41972;48.774;9.282;2023-04-12T01:53:12;7.30;99.90
2158;DHT22;41972;48.774;9.282;2023-04-12T01:55:40;7.40;99.90
2158;DHT22;41972;48.774;9.282;2023-04-12T01:58:10;7.20;99.90
2158;DHT22;41972;48.774;9.282;2023-04-12T02:00:36;7.20;99.90
2158;DHT22;41972;48.774;9.282;2023-04-12T02:03:04;7.10;99.90
2158;DHT22;41972;48.774;9.282;2023-04-12T02:05:31;7.00;99.90
2158;DHT22;41972;48.774;9.282;2023-04-12T02:07:57;6.90;99.90
2158;DHT22;41972;48.774;9.282;2023-04-12T02:10:30;6.80;99.90
2158;DHT22;41972;48.774;9.282;2023-04-12T02:12:59;6.70;99.90
2158;DHT22;41972;48.774;9.282;2023-04-12T02:15:26;6.80;99.90
2158;DHT22;41972;48.774;9.282;2023-04-12T02:17:52;6.80;99.90
2158;DHT22;41972;48.774;9.282;2023-04-12T02:20:22;6.70;99.90
2158;DHT22;41972;48.774;9.282;2023-04-12T02:22:48;6.60;99.90
2158;DHT22;41972;48.774;9.282;2023-04-12T02:25:14;6.60;99.90
2158;DHT22;41972;48.774;9.282;2023-04-12T02:27:46;6.60;99.90
2158;DHT22;41972;48.774;9.282;2023-04-12T02:30:13;6.50;99.90
2158;DHT22;41972;48.774;9.282;2023-04-12T02:32:38;6.50;99.90
2158;DHT22;41972;48.774;9.282;2023-04-12T02:35:11;6.50;99.90
2158;DHT22;41972;48.774;9.282;2023-04-12T02:37:37;6.50;99.90
2158;DHT22;41972;48.774;9.282;2023-04-12T02:40:04;6.50;99.90
2158;DHT22;41972;48.774;9.282;2023-04-12T02:42:31;6.40;99.90
2158;DHT22;41972;48.774;9.282;2023-04-12T02:44:57;6.90;99.90
2158;DHT22;41972;48.774;9.282;2023-04-12T02:47:22;6.40;99.90
2158;DHT22;41972;48.774;9.282;2023-04-12T02:49:52;6.40;99.90
2158;DHT22;41972;48.774;9.282;2023-04-12T02:52:18;6.40;99.90
2158;DHT22;41972;48.774;9.282;2023-04-12T02:54:44;6.50;99.90
2158;DHT22;41972;48.774;9.282;2023-04-12T02:57:09;6.50;99.90
2158;DHT22;41972;48.774;9.282;2023-04-12T02:59:36;6.50;99.90
2158;DHT22;41972;48.774;9.282;2023-04-12T03:02:01;6.40;99.90
2158;DHT22;41972;48.774;9.282;2023-04-12T03:04:27;6.50;99.90
2158;DHT22;41972;48.774;9.282;2023-04-12T03:06:57;6.50;99.90
2158;DHT22;41972;48.774;9.282;2023-04-12T03:09:23;6.60;99.90
2158;DHT22;41972;48.774;9.282;2023-04-12T03:11:49;6.60;99.90
2158;DHT22;41972;48.774;9.282;2023-04-12T03:14:15;6.60;99.90
2158;DHT22;41972;48.774;9.282;2023-04-12T03:16:41;6.50;99.90
2158;DHT22;41972;48.774;9.282;2023-04-12T03:19:07;6.50;99.90
2158;DHT22;41972;48.774;9.282;2023-04-12T03:21:33;6.50;99.90
2158;DHT22;41972;48.774;9.282;2023-04-12T03:23:58;6.50;99.90
2158;DHT22;41972;48.774;9.282;2023-04-12T03:26:24;6.50;99.90
2158;DHT22;41972;48.774;9.282;2023-04-12T03:28:54;6.50;99.90
2158;DHT22;41972;48.774;9.282;2023-04-12T03:31:20;6.50;99.90
2158;DHT22;41972;48.774;9.282;2023-04-12T03:33:45;6.50;99.90
2158;DHT22;41972;48.774;9.282;2023-04-12T03:36:11;6.50;99.90
2158;DHT22;41972;48.774;9.282;2023-04-12T03:38:37;6.50;99.90
2158;DHT22;41972;48.774;9.282;2023-04-12T03:41:02;6.50;99.90
2158;DHT22;41972;48.774;9.282;2023-04-12T03:43:28;6.50;99.90
2158;DHT22;41972;48.774;9.282;2023-04-12T03:46:03;6.50;99.90
2158;DHT22;41972;48.774;9.282;2023-04-12T03:48:29;6.60;99.90
2158;DHT22;41972;48.774;9.282;2023-04-12T03:50:55;6.60;99.90
2158;DHT22;41972;48.774;9.282;2023-04-12T03:53:25;6.70;99.90
2158;DHT22;41972;48.774;9.282;2023-04-12T03:55:55;6.70;99.90
2158;DHT22;41972;48.774;9.282;2023-04-12T03:58:21;6.60;99.90
2158;DHT22;41972;48.774;9.282;2023-04-12T04:00:47;6.60;99.90
2158;DHT22;41972;48.774;9.282;2023-04-12T04:03:13;6.70;99.90
2158;DHT22;41972;48.774;9.282;2023-04-12T04:05:40;6.70;99.90
2158;DHT22;41972;48.774;9.282;2023-04-12T04:08:05;6.70;99.90
2158;DHT22;41972;48.774;9.282;2023-04-12T04:10:32;6.70;99.90
2158;DHT22;41972;48.774;9.282;2023-04-12T04:12:58;6.70;99.90
2158;DHT22;41972;48.774;9.282;2023-04-12T04:15:25;6.80;99.90
2158;DHT22;41972;48.774;9.282;2023-04-12T04:17:51;6.80;99.90
2158;DHT22;41972;48.774;9.282;2023-04-12T04:20:17;6.80;99.90
2158;DHT22;41972;48.774;9.282;2023-04-12T04:22:43;6.80;99.90
2158;DHT22;41972;48.774;9.282;2023-04-12T04:25:10;6.70;99.90
2158;DHT22;41972;48.774;9.282;2023-04-12T04:27:38;6.80;99.90
2158;DHT22;41972;48.774;9.282;2023-04-12T04:30:05;6.70;99.90
2158;DHT22;41972;48.774;9.282;2023-04-12T04:32:31;6.70;99.90
2158;DHT22;41972;48.774;9.282;2023-04-12T04:34:58;7.00;99.90
2158;DHT22;41972;48.774;9.282;2023-04-12T04:37:24;6.60;99.90
2158;DHT22;41972;48.774;9.282;2023-04-12T04:39:50;6.70;99.90
2158;DHT22;41972;48.774;9.282;2023-04-12T04:42:16;6.60;99.90
2158;DHT22;41972;48.774;9.282;2023-04-12T04:44:41;6.70;99.90
2158;DHT22;41972;48.774;9.282;2023-04-12T04:47:08;6.80;99.90
2158;DHT22;41972;48.774;9.282;2023-04-12T04:49:34;6.70;99.90
2158;DHT22;41972;48.774;9.282;2023-04-12T04:52:01;6.60;99.90
2158;DHT22;41972;48.774;9.282;2023-04-12T04:54:27;6.60;99.90
2158;DHT22;41972;48.774;9.282;2023-04-12T04:56:52;6.20;99.90
2158;DHT22;41972;48.774;9.282;2023-04-12T04:59:18;6.70;99.90
2158;DHT22;41972;48.774;9.282;2023-04-12T05:01:44;6.60;99.90
2158;DHT22;41972;48.774;9.282;2023-04-12T05:04:10;6.70;99.90
2158;DHT22;41972;48.774;9.282;2023-04-12T05:06:35;6.70;99.90
2158;DHT22;41972;48.774;9.282;2023-04-12T05:09:01;6.70;99.90
2158;DHT22;41972;48.774;9.282;2023-04-12T05:11:27;6.70;99.90
2158;DHT22;41972;48.774;9.282;2023-04-12T05:13:52;6.70;99.90
2158;DHT22;41972;48.774;9.282;2023-04-12T05:16:18;6.70;99.90
2158;DHT22;41972;48.774;9.282;2023-04-12T05:18:43;6.80;99.90
2158;DHT22;41972;48.774;9.282;2023-04-12T05:21:09;6.70;99.90
2158;DHT22;41972;48.774;9.282;2023-04-12T05:23:35;6.70;99.90
2158;DHT22;41972;48.774;9.282;2023-04-12T05:26:02;6.80;99.90
2158;DHT22;41972;48.774;9.282;2023-04-12T05:28:27;6.80;99.90
2158;DHT22;41972;48.774;9.282;2023-04-12T05:30:53;6.70;99.90
2158;DHT22;41972;48.774;9.282;2023-04-12T05:33:18;6.80;99.90
2158;DHT22;41972;48.774;9.282;2023-04-12T05:35:44;6.80;99.90
2158;DHT22;41972;48.774;9.282;2023-04-12T05:38:10;6.70;99.90
2158;DHT22;41972;48.774;9.282;2023-04-12T05:40:35;6.80;99.90
2158;DHT22;41972;48.774;9.282;2023-04-12T05:43:01;6.80;99.90
2158;DHT22;41972;48.774;9.282;2023-04-12T05:45:27;6.80;99.90
2158;DHT22;41972;48.774;9.282;2023-04-12T05:47:54;6.80;99.90
2158;DHT22;41972;48.774;9.282;2023-04-12T05:50:20;6.80;99.90
2158;DHT22;41972;48.774;9.282;2023-04-12T05:52:46;6.90;99.90
2158;DHT22;41972;48.774;9.282;2023-04-12T05:55:14;6.80;99.90
2158;DHT22;41972;48.774;9.282;2023-04-12T05:57:43;6.90;99.90
2158;DHT22;41972;48.774;9.282;2023-04-12T06:00:10;6.90;99.90
2158;DHT22;41972;48.774;9.282;2023-04-12T06:02:40;7.00;99.90
2158;DHT22;41972;48.774;9.282;2023-04-12T06:05:07;6.90;99.90
2158;DHT22;41972;48.774;9.282;2023-04-12T06:07:32;6.90;99.90
2158;DHT22;41972;48.774;9.282;2023-04-12T06:09:58;7.00;99.90
2158;DHT22;41972;48.774;9.282;2023-04-12T06:12:23;7.00;99.90
2158;DHT22;41972;48.774;9.282;2023-04-12T06:14:49;7.10;99.90
2158;DHT22;41972;48.774;9.282;2023-04-12T06:17:15;7.00;99.90
2158;DHT22;41972;48.774;9.282;2023-04-12T06:19:41;7.10;99.90
2158;DHT22;41972;48.774;9.282;2023-04-12T06:22:06;7.20;99.90
2158;DHT22;41972;48.774;9.282;2023-04-12T06:24:32;7.10;99.90
2158;DHT22;41972;48.774;9.282;2023-04-12T06:26:57;7.10;99.90
2158;DHT22;41972;48.774;9.282;2023-04-12T06:29:23;7.20;99.90
2158;DHT22;41972;48.774;9.282;2023-04-12T06:31:48;7.20;99.90
2158;DHT22;41972;48.774;9.282;2023-04-12T06:34:14;7.30;99.90
2158;DHT22;41972;48.774;9.282;2023-04-12T06:36:40;7.20;99.90
2158;DHT22;41972;48.774;9.282;2023-04-12T06:39:08;7.30;99.90
2158;DHT22;41972;48.774;9.282;2023-04-12T06:41:36;7.30;99.90
2158;DHT22;41972;48.774;9.282;2023-04-12T06:44:01;7.30;99.90
2158;DHT22;41972;48.774;9.282;2023-04-12T06:46:27;7.30;99.90
2158;DHT22;41972;48.774;9.282;2023-04-12T06:48:53;7.40;99.90
2158;DHT22;41972;48.774;9.282;2023-04-12T06:51:19;7.50;99.90
2158;DHT22;41972;48.774;9.282;2023-04-12T06:53:45;7.50;99.90
2158;DHT22;41972;48.774;9.282;2023-04-12T06:56:10;7.50;99.90
2158;DHT22;41972;48.774;9.282;2023-04-12T06:58:36;7.50;99.90
2158;DHT22;41972;48.774;9.282;2023-04-12T07:01:08;7.50;99.90
2158;DHT22;41972;48.774;9.282;2023-04-12T07:03:40;7.60;99.90
2158;DHT22;41972;48.774;9.282;2023-04-12T07:06:06;7.60;99.90
2158;DHT22;41972;48.774;9.282;2023-04-12T07:08:33;8.20;99.90
2158;DHT22;41972;48.774;9.282;2023-04-12T07:10:58;7.60;99.90
2158;DHT22;41972;48.774;9.282;2023-04-12T07:13:24;7.60;99.90
2158;DHT22;41972;48.774;9.282;2023-04-12T07:15:50;7.70;99.90
2158;DHT22;41972;48.774;9.282;2023-04-12T07:18:16;7.70;99.90
2158;DHT22;41972;48.774;9.282;2023-04-12T07:20:42;7.70;99.90
2158;DHT22;41972;48.774;9.282;2023-04-12T07:23:07;7.80;99.90
2158;DHT22;41972;48.774;9.282;2023-04-12T07:25:36;7.80;99.90
2158;DHT22;41972;48.774;9.282;2023-04-12T07:28:02;7.80;99.90
2158;DHT22;41972;48.774;9.282;2023-04-12T07:30:27;7.70;99.90
2158;DHT22;41972;48.774;9.282;2023-04-12T07:32:54;7.80;99.90
2158;DHT22;41972;48.774;9.282;2023-04-12T07:35:19;7.80;99.90
2158;DHT22;41972;48.774;9.282;2023-04-12T07:37:47;7.90;99.90
2158;DHT22;41972;48.774;9.282;2023-04-12T07:40:12;7.90;99.90
2158;DHT22;41972;48.774;9.282;2023-04-12T07:42:38;7.90;99.90
2158;DHT22;41972;48.774;9.282;2023-04-12T07:45:04;7.90;99.90
2158;DHT22;41972;48.774;9.282;2023-04-12T07:47:30;8.10;99.90
2158;DHT22;41972;48.774;9.282;2023-04-12T07:49:57;8.10;99.90
2158;DHT22;41972;48.774;9.282;2023-04-12T07:52:23;8.20;99.90
2158;DHT22;41972;48.774;9.282;2023-04-12T07:54:49;8.10;99.90
2158;DHT22;41972;48.774;9.282;2023-04-12T07:57:14;8.20;99.90
2158;DHT22;41972;48.774;9.282;2023-04-12T07:59:40;8.20;99.90
2158;DHT22;41972;48.774;9.282;2023-04-12T08:02:06;8.20;99.90
2158;DHT22;41972;48.774;9.282;2023-04-12T08:04:31;8.20;99.90
2158;DHT22;41972;48.774;9.282;2023-04-12T08:06:57;8.20;99.90
2158;DHT22;41972;48.774;9.282;2023-04-12T08:09:23;8.20;99.90
2158;DHT22;41972;48.774;9.282;2023-04-12T08:11:49;8.20;99.90
2158;DHT22;41972;48.774;9.282;2023-04-12T08:14:15;8.20;99.90
2158;DHT22;41972;48.774;9.282;2023-04-12T08:16:41;8.30;99.90
2158;DHT22;41972;48.774;9.282;2023-04-12T08:19:06;8.30;99.90
2158;DHT22;41972;48.774;9.282;2023-04-12T08:21:32;8.40;99.90
2158;DHT22;41972;48.774;9.282;2023-04-12T08:23:58;8.50;99.90
2158;DHT22;41972;48.774;9.282;2023-04-12T08:26:24;8.50;99.90
2158;DHT22;41972;48.774;9.282;2023-04-12T08:28:51;9.20;99.90
2158;DHT22;41972;48.774;9.282;2023-04-12T08:31:17;8.60;99.90
2158;DHT22;41972;48.774;9.282;2023-04-12T08:33:42;8.60;99.90
2158;DHT22;41972;48.774;9.282;2023-04-12T08:36:08;8.60;99.90
2158;DHT22;41972;48.774;9.282;2023-04-12T08:38:36;8.50;99.90
2158;DHT22;41972;48.774;9.282;2023-04-12T08:41:06;8.70;99.90
2158;DHT22;41972;48.774;9.282;2023-04-12T08:43:32;8.70;99.90
2158;DHT22;41972;48.774;9.282;2023-04-12T08:45:59;8.70;99.90
2158;DHT22;41972;48.774;9.282;2023-04-12T08:48:26;8.90;99.90
2158;DHT22;41972;48.774;9.282;2023-04-12T08:50:55;8.90;99.90
2158;DHT22;41972;48.774;9.282;2023-04-12T08:53:21;9.00;99.90
2158;DHT22;41972;48.774;9.282;2023-04-12T08:55:46;9.20;99.90
2158;DHT22;41972;48.774;9.282;2023-04-12T08:58:15;9.20;99.90
2158;DHT22;41972;48.774;9.282;2023-04-12T09:00:41;9.30;99.90
2158;DHT22;41972;48.774;9.282;2023-04-12T09:03:08;9.40;99.90
2158;DHT22;41972;48.774;9.282;2023-04-12T09:05:36;9.40;99.90
2158;DHT22;41972;48.774;9.282;2023-04-12T09:08:03;9.40;99.90
2158;DHT22;41972;48.774;9.282;2023-04-12T09:10:32;9.40;99.90
2158;DHT22;41972;48.774;9.282;2023-04-12T09:12:59;9.30;99.90
2158;DHT22;41972;48.774;9.282;2023-04-12T09:15:25;9.40;99.90
2158;DHT22;41972;48.774;9.282;2023-04-12T09:18:03;9.50;99.90
2158;DHT22;41972;48.774;9.282;2023-04-12T09:20:28;9.40;99.90
2158;DHT22;41972;48.774;9.282;2023-04-12T09:22:54;9.60;99.90
2158;DHT22;41972;48.774;9.282;2023-04-12T09:25:35;9.60;99.90
2158;DHT22;41972;48.774;9.282;2023-04-12T09:28:02;9.70;99.90
2158;DHT22;41972;48.774;9.282;2023-04-12T09:30:28;9.90;99.90
2158;DHT22;41972;48.774;9.282;2023-04-12T09:32:54;10.00;99.90
2158;DHT22;41972;48.774;9.282;2023-04-12T09:35:32;10.20;99.90
2158;DHT22;41972;48.774;9.282;2023-04-12T09:38:06;10.30;99.90
2158;DHT22;41972;48.774;9.282;2023-04-12T09:40:32;10.40;99.90
2158;DHT22;41972;48.774;9.282;2023-04-12T09:43:01;10.50;99.90
2158;DHT22;41972;48.774;9.282;2023-04-12T09:45:26;10.50;99.90
2158;DHT22;41972;48.774;9.282;2023-04-12T09:47:53;10.40;99.90
2158;DHT22;41972;48.774;9.282;2023-04-12T09:50:23;10.50;99.90
2158;DHT22;41972;48.774;9.282;2023-04-12T09:52:50;10.60;99.90
2158;DHT22;41972;48.774;9.282;2023-04-12T09:55:16;10.70;99.90
2158;DHT22;41972;48.774;9.282;2023-04-12T09:57:43;10.70;99.90
2158;DHT22;41972;48.774;9.282;2023-04-12T10:00:13;10.70;99.90
2158;DHT22;41972;48.774;9.282;2023-04-12T10:02:42;10.90;99.90
2158;DHT22;41972;48.774;9.282;2023-04-12T10:05:12;11.20;99.90
2158;DHT22;41972;48.774;9.282;2023-04-12T10:07:41;11.30;99.90
2158;DHT22;41972;48.774;9.282;2023-04-12T10:10:08;11.50;99.90
2158;DHT22;41972;48.774;9.282;2023-04-12T10:12:37;11.40;99.90
2158;DHT22;41972;48.774;9.282;2023-04-12T10:15:04;11.50;99.90
2158;DHT22;41972;48.774;9.282;2023-04-12T10:17:33;12.00;99.90
2158;DHT22;41972;48.774;9.282;2023-04-12T10:19:59;12.20;99.90
2158;DHT22;41972;48.774;9.282;2023-04-12T10:22:25;12.70;99.90
2158;DHT22;41972;48.774;9.282;2023-04-12T10:24:51;12.60;99.90
2158;DHT22;41972;48.774;9.282;2023-04-12T10:27:26;12.40;99.90
2158;DHT22;41972;48.774;9.282;2023-04-12T10:29:52;12.30;99.90
2158;DHT22;41972;48.774;9.282;2023-04-12T10:32:22;12.40;99.90
2158;DHT22;41972;48.774;9.282;2023-04-12T10:34:52;12.30;99.90
2158;DHT22;41972;48.774;9.282;2023-04-12T10:37:18;12.60;99.90
2158;DHT22;41972;48.774;9.282;2023-04-12T10:39:51;13.10;99.90
2158;DHT22;41972;48.774;9.282;2023-04-12T10:42:26;13.30;99.90
2158;DHT22;41972;48.774;9.282;2023-04-12T10:47:56;13.50;99.90
2158;DHT22;41972;48.774;9.282;2023-04-12T10:50:32;13.40;99.90
2158;DHT22;41972;48.774;9.282;2023-04-12T10:55:38;13.90;99.90
2158;DHT22;41972;48.774;9.282;2023-04-12T10:58:03;14.30;99.90
2158;DHT22;41972;48.774;9.282;2023-04-12T11:01:21;13.40;99.90
2158;DHT22;41972;48.774;9.282;2023-04-12T11:04:20;12.90;99.90
2158;DHT22;41972;48.774;9.282;2023-04-12T11:09:25;13.30;99.90
2158;DHT22;41972;48.774;9.282;2023-04-12T11:14:27;13.30;99.90
2158;DHT22;41972;48.774;9.282;2023-04-12T11:19:39;13.60;99.90
2158;DHT22;41972;48.774;9.282;2023-04-12T11:22:07;14.20;99.90
2158;DHT22;41972;48.774;9.282;2023-04-12T11:24:37;14.40;99.90
2158;DHT22;41972;48.774;9.282;2023-04-12T11:27:03;14.30;99.90
2158;DHT22;41972;48.774;9.282;2023-04-12T11:29:29;14.60;99.90
2158;DHT22;41972;48.774;9.282;2023-04-12T11:31:57;14.30;99.90
2158;DHT22;41972;48.774;9.282;2023-04-12T11:34:23;13.90;99.90
2158;DHT22;41972;48.774;9.282;2023-04-12T11:36:51;14.10;99.90
2158;DHT22;41972;48.774;9.282;2023-04-12T11:39:18;13.90;99.90
2158;DHT22;41972;48.774;9.282;2023-04-12T11:41:45;14.10;99.90
2158;DHT22;41972;48.774;9.282;2023-04-12T11:44:12;13.90;99.90
2158;DHT22;41972;48.774;9.282;2023-04-12T11:46:37;13.70;99.90
2158;DHT22;41972;48.774;9.282;2023-04-12T11:49:03;13.80;99.90
2158;DHT22;41972;48.774;9.282;2023-04-12T11:51:30;14.10;99.90
2158;DHT22;41972;48.774;9.282;2023-04-12T11:53:57;14.20;99.90
2158;DHT22;41972;48.774;9.282;2023-04-12T11:56:24;14.40;99.90
2158;DHT22;41972;48.774;9.282;2023-04-12T11:58:50;14.40;99.90
2158;DHT22;41972;48.774;9.282;2023-04-12T12:01:17;13.60;99.90
2158;DHT22;41972;48.774;9.282;2023-04-12T12:03:43;13.80;99.90
2158;DHT22;41972;48.774;9.282;2023-04-12T12:06:09;14.30;99.90
2158;DHT22;41972;48.774;9.282;2023-04-12T12:08:35;14.00;99.90
2158;DHT22;41972;48.774;9.282;2023-04-12T12:11:01;14.40;99.90
2158;DHT22;41972;48.774;9.282;2023-04-12T12:13:26;14.40;99.90
2158;DHT22;41972;48.774;9.282;2023-04-12T12:16:07;14.40;99.90
2158;DHT22;41972;48.774;9.282;2023-04-12T12:18:37;14.20;99.90
2158;DHT22;41972;48.774;9.282;2023-04-12T12:21:07;14.00;99.90
2158;DHT22;41972;48.774;9.282;2023-04-12T12:23:33;14.30;99.90
2158;DHT22;41972;48.774;9.282;2023-04-12T12:26:01;13.80;99.90
2158;DHT22;41972;48.774;9.282;2023-04-12T12:28:38;14.50;99.90
2158;DHT22;41972;48.774;9.282;2023-04-12T12:31:09;14.70;99.90
2158;DHT22;41972;48.774;9.282;2023-04-12T12:33:41;15.10;99.90
2158;DHT22;41972;48.774;9.282;2023-04-12T12:36:07;14.90;99.90
2158;DHT22;41972;48.774;9.282;2023-04-12T12:38:40;14.90;99.90
2158;DHT22;41972;48.774;9.282;2023-04-12T12:41:21;15.10;99.90
2158;DHT22;41972;48.774;9.282;2023-04-12T12:43:49;14.50;99.90
2158;DHT22;41972;48.774;9.282;2023-04-12T12:46:15;14.40;99.90
2158;DHT22;41972;48.774;9.282;2023-04-12T12:48:46;14.50;99.90
2158;DHT22;41972;48.774;9.282;2023-04-12T12:51:13;14.70;99.90
2158;DHT22;41972;48.774;9.282;2023-04-12T12:53:39;15.50;99.90
2158;DHT22;41972;48.774;9.282;2023-04-12T12:56:09;15.40;99.90
2158;DHT22;41972;48.774;9.282;2023-04-12T12:58:36;15.70;99.90
2158;DHT22;41972;48.774;9.282;2023-04-12T13:01:03;15.40;99.90
2158;DHT22;41972;48.774;9.282;2023-04-12T13:03:29;15.00;99.90
2158;DHT22;41972;48.774;9.282;2023-04-12T13:05:55;15.20;99.90
2158;DHT22;41972;48.774;9.282;2023-04-12T13:08:22;14.70;99.90
2158;DHT22;41972;48.774;9.282;2023-04-12T13:10:48;14.90;99.90
2158;DHT22;41972;48.774;9.282;2023-04-12T13:13:13;14.60;99.90
2158;DHT22;41972;48.774;9.282;2023-04-12T13:15:39;14.90;99.90
2158;DHT22;41972;48.774;9.282;2023-04-12T13:18:05;15.40;99.90
2158;DHT22;41972;48.774;9.282;2023-04-12T13:20:32;14.90;99.90
2158;DHT22;41972;48.774;9.282;2023-04-12T13:22:57;14.90;99.90
2158;DHT22;41972;48.774;9.282;2023-04-12T13:25:23;15.10;99.90
2158;DHT22;41972;48.774;9.282;2023-04-12T13:27:49;14.20;99.90
2158;DHT22;41972;48.774;9.282;2023-04-12T13:30:15;14.50;99.90
2158;DHT22;41972;48.774;9.282;2023-04-12T13:32:41;14.50;99.90
2158;DHT22;41972;48.774;9.282;2023-04-12T13:35:06;14.20;99.90
2158;DHT22;41972;48.774;9.282;2023-04-12T13:37:32;14.20;99.90
2158;DHT22;41972;48.774;9.282;2023-04-12T13:39:58;14.60;99.90
2158;DHT22;41972;48.774;9.282;2023-04-12T13:42:23;14.90;99.90
2158;DHT22;41972;48.774;9.282;2023-04-12T13:44:49;15.50;99.90
2158;DHT22;41972;48.774;9.282;2023-04-12T13:47:15;15.90;99.90
2158;DHT22;41972;48.774;9.282;2023-04-12T13:49:42;16.00;99.90
2158;DHT22;41972;48.774;9.282;2023-04-12T13:52:07;16.00;99.90
2158;DHT22;41972;48.774;9.282;2023-04-12T13:54:33;15.00;99.90
2158;DHT22;41972;48.774;9.282;2023-04-12T13:56:58;14.90;99.90
2158;DHT22;41972;48.774;9.282;2023-04-12T13:59:27;15.10;99.90
2158;DHT22;41972;48.774;9.282;2023-04-12T14:01:53;15.10;99.90
2158;DHT22;41972;48.774;9.282;2023-04-12T14:04:19;14.90;99.90
2158;DHT22;41972;48.774;9.282;2023-04-12T14:06:44;15.10;99.90
2158;DHT22;41972;48.774;9.282;2023-04-12T14:09:28;15.10;99.90
2158;DHT22;41972;48.774;9.282;2023-04-12T14:11:55;14.60;99.90
2158;DHT22;41972;48.774;9.282;2023-04-12T14:14:21;14.70;99.90
2158;DHT22;41972;48.774;9.282;2023-04-12T14:16:51;14.40;99.90
2158;DHT22;41972;48.774;9.282;2023-04-12T14:19:18;14.70;99.90
2158;DHT22;41972;48.774;9.282;2023-04-12T14:21:45;14.60;99.90
2158;DHT22;41972;48.774;9.282;2023-04-12T14:24:11;14.50;99.90
2158;DHT22;41972;48.774;9.282;2023-04-12T14:26:37;15.10;99.90
2158;DHT22;41972;48.774;9.282;2023-04-12T14:29:04;15.50;99.90
2158;DHT22;41972;48.774;9.282;2023-04-12T14:31:30;15.60;99.90
2158;DHT22;41972;48.774;9.282;2023-04-12T14:33:56;15.50;99.90
2158;DHT22;41972;48.774;9.282;2023-04-12T14:36:21;15.30;99.90
2158;DHT22;41972;48.774;9.282;2023-04-12T14:38:47;15.40;99.90
2158;DHT22;41972;48.774;9.282;2023-04-12T14:41:14;15.40;99.90
2158;DHT22;41972;48.774;9.282;2023-04-12T14:43:39;15.40;99.90
2158;DHT22;41972;48.774;9.282;2023-04-12T14:46:05;16.00;99.90
2158;DHT22;41972;48.774;9.282;2023-04-12T14:48:31;16.20;99.90
2158;DHT22;41972;48.774;9.282;2023-04-12T14:50:56;16.40;99.90
2158;DHT22;41972;48.774;9.282;2023-04-12T14:53:22;16.40;99.90
2158;DHT22;41972;48.774;9.282;2023-04-12T14:55:48;16.20;99.90
2158;DHT22;41972;48.774;9.282;2023-04-12T14:58:13;16.20;99.90
2158;DHT22;41972;48.774;9.282;2023-04-12T15:00:39;16.00;99.90
2158;DHT22;41972;48.774;9.282;2023-04-12T15:03:04;16.20;99.90
2158;DHT22;41972;48.774;9.282;2023-04-12T15:05:34;16.30;99.90
2158;DHT22;41972;48.774;9.282;2023-04-12T15:08:00;16.10;99.90
2158;DHT22;41972;48.774;9.282;2023-04-12T15:10:26;15.60;99.90
2158;DHT22;41972;48.774;9.282;2023-04-12T15:12:52;15.50;99.90
2158;DHT22;41972;48.774;9.282;2023-04-12T15:15:18;15.30;99.90
2158;DHT22;41972;48.774;9.282;2023-04-12T15:17:44;15.10;99.90
2158;DHT22;41972;48.774;9.282;2023-04-12T15:20:10;15.00;99.90
2158;DHT22;41972;48.774;9.282;2023-04-12T15:22:41;15.10;99.90
2158;DHT22;41972;48.774;9.282;2023-04-12T15:25:07;15.20;99.90
2158;DHT22;41972;48.774;9.282;2023-04-12T15:27:34;15.10;99.90
2158;DHT22;41972;48.774;9.282;2023-04-12T15:29:59;14.30;99.90
2158;DHT22;41972;48.774;9.282;2023-04-12T15:32:27;12.90;99.90
2158;DHT22;41972;48.774;9.282;2023-04-12T15:34:54;11.60;99.90
2158;DHT22;41972;48.774;9.282;2023-04-12T15:37:22;11.30;99.90
2158;DHT22;41972;48.774;9.282;2023-04-12T15:39:48;10.70;99.90
2158;DHT22;41972;48.774;9.282;2023-04-12T15:42:14;10.70;99.90
2158;DHT22;41972;48.774;9.282;2023-04-12T15:44:40;10.70;99.90
2158;DHT22;41972;48.774;9.282;2023-04-12T15:47:06;10.90;99.90
2158;DHT22;41972;48.774;9.282;2023-04-12T15:49:32;10.90;99.90
2158;DHT22;41972;48.774;9.282;2023-04-12T15:51:58;10.80;99.90
2158;DHT22;41972;48.774;9.282;2023-04-12T15:54:23;10.60;99.90
2158;DHT22;41972;48.774;9.282;2023-04-12T15:56:49;10.60;99.90
2158;DHT22;41972;48.774;9.282;2023-04-12T15:59:15;10.50;99.90
2158;DHT22;41972;48.774;9.282;2023-04-12T16:01:45;10.90;99.90
2158;DHT22;41972;48.774;9.282;2023-04-12T16:04:11;11.10;99.90
2158;DHT22;41972;48.774;9.282;2023-04-12T16:06:37;10.80;99.90
2158;DHT22;41972;48.774;9.282;2023-04-12T16:09:03;10.90;99.90
2158;DHT22;41972;48.774;9.282;2023-04-12T16:11:32;10.90;99.90
2158;DHT22;41972;48.774;9.282;2023-04-12T16:13:58;11.20;99.90